Sun Valley, ID

4:50 PM MDT on September 25, 2016 (GMT -0600)
Stanley | | Change Station

Elev 6496 ft 44.17 °N, 114.93 °W | Updated 59 minutes ago

Clear
Clear
71 °F
Feels Like 71 °F
N
5
Wind Variable Wind from Variable
Gusts mph

Today
High -- | Low -- °F
--% Chance of Precip.
Yesterday
High -- | Low -- °F
Precip. -- in
Pressure 30.32 in
Visibility -9999.0 miles
Clouds
Dew Point 37 °F
Humidity 29%
Rainfall 0.00 in
Snow Depth Not available.
7:28 AM 7:27 PM
Waning Crescent, 24% visible
METAR KSNT 252151Z AUTO VRB04KT 22/03 A3050 RMK AO1 SLP268 T02170028
Pressure 30.32 in
Visibility -9999.0 miles
Clouds
Dew Point 37 °F
Humidity 29%
Rainfall 0.00 in
Snow Depth Not available.
7:28 AM 7:27 PM
Waning Crescent, 24% visible
METAR KSNT 252151Z AUTO VRB04KT 22/03 A3050 RMK AO1 SLP268 T02170028

10-Day Weather Forecast

Almanac

Astronomy

Sep. 25, 2016 Rise Set
Actual Time
Civil Twilight
Nautical Twilight
Astronomical Twilight
Moon
Length of Visible Light
Length of Day
Tomorrow will be .
, % of the Moon is Illuminated

Today's Extremes

State Highs State Lows

Community

WunderPhotos

Upload Photos

1,941,761 photos uploaded!

WunderBlog® & News

Nearby

Air Quality

  Air Quality AQ Index Pollutant
Not available.

Snow Depth

Station Depth Elevation

Earthquake Activity

City Distance Mag. Time & Date
Minimum magnitude displayed is 2.5.

Coastal Water Temperatures

Place Temperature

Stations

Nearby Weather Stations

Station Location Temp. Windchill Dew Point Humidity Wind Precip. Elev Updated Type
                   

Watches & Warnings

There are currently no watches in effect.